HECA/CAI METAR and TAF weather

Enter ICAO airport designator
Station Type Date Time Source
HECA METAR 2018/09/21 23:00 UTC NOAA

HECA 212300Z 36010KT 9999 SCT025 25/20 Q1014 NOSIG


Station Type Date Time Source
HECA Decoded METAR 2018/09/21 23:00 UTC NOAA

Cairo Airport, Egypt (HECA) 30-08N 031-24E 74M
Sep 21, 2018 - 07:00 PM EDT / 2018.09.21 2300 UTC
Wind: from the N (360 degrees) at 12 MPH (10 KT):0
Visibility: greater than 7 mile(s):0
Sky conditions: partly cloudy
Temperature: 77 F (25 C)
Dew Point: 68 F (20 C)
Relative Humidity: 73%
Pressure (altimeter): 29.94 in. Hg (1014 hPa)
ob: HECA 212300Z 36010KT 9999 SCT025 25/20 Q1014 NOSIG
cycle: 23

Station Type Date Time Source
HECA TAF 2018/09/21 18:40 UTC NOAA

TAF HECA 211700Z 2118/2224 35009KT CAVOK
TEMPO 2101/2106 VRB03KT 4000BR NSC


Example: see airport list